Portada
METAR-TAF:

METAR-TAF

Aeroports :

Hat Yai, Tailàndia

latitud: 06-55N, longitud: 100-26E, altitud: 27 m

Observació

L'informe es va fer fa 43 minuts, a les 11:00 UTC
Vent 10 kt del Nord-Est
Temperatura 30°C
Humitat 46%
Pressió 1010 hPa
Visibilitat 10 km o més
sense núvols per sota de 1500 mi sense presència de cumulonimbus.

METAR: VTSS 241100Z 05010KT 9999 CAVOK 30/17 Q1010 NOSIG

Hora: 18:43 (11:43 UTC)

Pronòstic

L'informe es va fer fa 6 hores i 43 minuts, a les 05:00 UTC
Pronòstic vàlid del 24 a les 06 UTC al 25 a les 06 UTC
Vent 13 kt del Est/Nord-Est
Visibilitat 10 km o més
Escasses núvols a una alçada de 2000 ft
Evolucionant progressivament
l' 24 a les 16 UTC al 24 a les 18 UTC
Vent 3 kt del Oest
Evolucionant progressivament
l' 25 a les 01 UTC al 25 a les 03 UTC
Vent 10 kt del Est/Nord-Est

TAF: VTSS 240500Z 2406/2506 07013KT 9999 FEW020 BECMG 2416/2418 27003KT BECMG 2501/2503 07010KT

Observacions i pronòstics meteorològics de més de 4000 aeroports (METAR i TAF).

Les estacions disponibles són els punts grocs i vermells al mapa.

Posi el ratolí al punt desitjat per veure el nom de l'estació.

Feu clic per veure les observacions i els pronòstics meteorològics.

Per canviar el mapa: feu clic els botons verds amb una creu de color negre per apropar; al botó verd amb un guió per allunyar la imatge; o en les fletxes verdes per a mapes adjacents.


METAR-TAF: